createdAt,value
2023-01-09T00:01:19.472Z,98512.41
2023-01-09T00:03:47.401Z,98507.81
2023-01-09T00:06:15.270Z,98546.47
2023-01-09T00:08:43.166Z,98545.09
2023-01-09T00:11:11.095Z,98552.22
2023-01-09T00:13:40.712Z,98533.38
2023-01-09T00:16:10.481Z,98508.47
2023-01-09T00:18:39.445Z,98543.75
2023-01-09T00:21:09.383Z,98550.28
2023-01-09T00:23:37.906Z,98519.03
2023-01-09T00:26:08.312Z,98548.44
2023-01-09T00:28:37.169Z,98540.16
2023-01-09T00:31:08.881Z,98532.78
2023-01-09T00:33:39.684Z,98545.59
2023-01-09T00:36:08.826Z,98538.72
2023-01-09T00:38:37.284Z,98533.91
2023-01-09T00:41:07.138Z,98553.97
2023-01-09T00:43:39.253Z,98564.44
2023-01-09T00:46:09.504Z,98520.78
2023-01-09T00:48:42.723Z,98568.13
2023-01-09T00:51:10.643Z,98531.19
2023-01-09T00:53:42.920Z,98522.72
2023-01-09T00:56:14.947Z,98542.47
2023-01-09T00:58:43.527Z,98536.06
2023-01-09T01:01:13.377Z,98564.75
2023-01-09T01:03:41.245Z,98565.22
2023-01-09T01:06:27.463Z,98535.81
2023-01-09T01:08:56.051Z,98549.88
2023-01-09T01:11:24.495Z,98552.94
2023-01-09T01:13:53.316Z,98573.06
2023-01-09T01:16:22.594Z,98535.81
2023-01-09T01:18:50.708Z,98545.94
2023-01-09T01:21:19.514Z,98551.13
2023-01-09T01:23:47.886Z,98546.91
2023-01-09T01:26:17.118Z,98538.69
2023-01-09T01:28:46.385Z,98558.13
2023-01-09T01:31:19.294Z,98539.50
2023-01-09T01:33:49.058Z,98538.38
2023-01-09T01:36:17.916Z,98566.41
2023-01-09T01:38:46.886Z,98537.97
2023-01-09T01:41:30.068Z,98565.00
2023-01-09T01:44:00.531Z,98545.06
2023-01-09T01:46:28.881Z,98554.91
2023-01-09T01:49:03.084Z,98563.47
2023-01-09T01:51:33.680Z,98572.97
2023-01-09T01:54:07.628Z,98552.53
2023-01-09T01:56:39.347Z,98570.44
2023-01-09T01:59:13.271Z,98522.72
2023-01-09T02:01:45.395Z,98555.69
2023-01-09T02:04:14.990Z,98553.06
2023-01-09T02:06:43.501Z,98581.69
2023-01-09T02:09:15.734Z,98578.97
2023-01-09T02:11:45.885Z,98565.88
2023-01-09T02:14:13.930Z,98568.00
2023-01-09T02:16:53.033Z,98584.94
2023-01-09T02:20:00.157Z,98595.91
2023-01-09T02:22:37.404Z,98598.31
2023-01-09T02:25:31.193Z,98590.16
2023-01-09T02:28:22.846Z,98566.81
2023-01-09T02:30:58.184Z,98542.25
2023-01-09T02:33:35.717Z,98576.16
2023-01-09T02:36:13.150Z,98560.75
2023-01-09T02:38:51.132Z,98528.94
2023-01-09T02:41:24.881Z,98545.88
2023-01-09T02:44:19.979Z,98558.66
2023-01-09T02:46:49.459Z,98579.47
2023-01-09T02:49:18.451Z,98568.25
2023-01-09T02:51:53.373Z,98564.97
2023-01-09T02:54:30.404Z,98551.50
2023-01-09T02:57:18.168Z,98554.22
2023-01-09T02:59:58.438Z,98549.50
2023-01-09T03:02:44.153Z,98556.97
2023-01-09T03:05:14.267Z,98545.25
2023-01-09T03:07:47.390Z,98542.47
2023-01-09T03:10:20.649Z,98548.44
2023-01-09T03:12:54.176Z,98531.56
2023-01-09T03:15:25.676Z,98532.28
2023-01-09T03:17:57.536Z,98506.56
2023-01-09T03:20:28.763Z,98514.09
2023-01-09T03:22:58.568Z,98537.56
2023-01-09T03:25:27.576Z,98528.31
2023-01-09T03:27:59.186Z,98532.13
2023-01-09T03:30:28.690Z,98536.56
2023-01-09T03:32:58.825Z,98499.69
2023-01-09T03:35:27.780Z,98543.34
2023-01-09T03:37:55.831Z,98548.13
2023-01-09T03:40:23.728Z,98544.38
2023-01-09T03:42:52.058Z,98525.91
2023-01-09T03:45:19.826Z,98474.69
2023-01-09T03:47:47.787Z,98535.44
2023-01-09T03:50:17.971Z,98510.09
2023-01-09T03:52:45.892Z,98517.78
2023-01-09T03:55:15.523Z,98526.84
2023-01-09T03:57:44.243Z,98550.63
2023-01-09T04:00:13.324Z,98554.88
2023-01-09T04:02:41.563Z,98538.59
2023-01-09T04:05:10.546Z,98548.53
2023-01-09T04:07:40.358Z,98550.84
2023-01-09T04:10:08.778Z,98536.47
2023-01-09T04:12:37.123Z,98533.13
2023-01-09T04:15:05.450Z,98525.91
2023-01-09T04:17:33.437Z,98546.72
2023-01-09T04:20:01.807Z,98515.59
2023-01-09T04:22:31.421Z,98551.59
2023-01-09T04:25:00.814Z,98533.75
2023-01-09T04:27:29.262Z,98534.63
2023-01-09T04:29:57.063Z,98539.38
2023-01-09T04:32:27.587Z,98547.56
2023-01-09T04:34:57.484Z,98549.50
2023-01-09T04:37:25.767Z,98544.47
2023-01-09T04:39:56.005Z,98548.69
2023-01-09T04:42:26.030Z,98545.66
2023-01-09T04:44:54.424Z,98530.88
2023-01-09T04:47:23.822Z,98531.81
2023-01-09T04:49:52.372Z,98522.66
2023-01-09T04:52:20.459Z,98547.44
2023-01-09T04:54:48.415Z,98554.56
2023-01-09T04:57:16.781Z,98506.81
2023-01-09T04:59:46.224Z,98554.88
2023-01-09T05:02:14.215Z,98554.69
2023-01-09T05:04:43.000Z,98533.59
2023-01-09T05:07:11.323Z,98568.22
2023-01-09T05:09:39.150Z,98504.81
2023-01-09T05:12:08.424Z,98517.59
2023-01-09T05:14:36.245Z,98509.47
2023-01-09T05:17:07.022Z,98555.81
2023-01-09T05:19:36.144Z,98562.03
2023-01-09T05:22:03.983Z,98563.88
2023-01-09T05:24:31.872Z,98571.94
2023-01-09T05:27:00.193Z,98561.50
2023-01-09T05:29:28.054Z,98577.41
2023-01-09T05:31:55.973Z,98550.72
2023-01-09T05:34:26.165Z,98591.16
2023-01-09T05:36:53.994Z,98591.94
2023-01-09T05:39:21.836Z,98586.91
2023-01-09T05:41:50.054Z,98579.25
2023-01-09T05:44:18.063Z,98603.63
2023-01-09T05:46:46.067Z,98602.75
2023-01-09T05:49:14.515Z,98607.31
2023-01-09T05:51:43.684Z,98600.34
2023-01-09T05:54:11.615Z,98606.19
2023-01-09T05:56:40.105Z,98628.72
2023-01-09T05:59:07.977Z,98598.50
2023-01-09T06:01:35.908Z,98594.22
2023-01-09T06:04:04.456Z,98619.13
2023-01-09T06:06:32.636Z,98613.16
2023-01-09T06:09:03.578Z,98581.25
2023-01-09T06:11:32.104Z,98612.75
2023-01-09T06:13:59.975Z,98606.50
2023-01-09T06:16:28.498Z,98596.69
2023-01-09T06:18:57.114Z,98622.19
2023-01-09T06:21:25.043Z,98627.47
2023-01-09T06:23:52.825Z,98619.94
2023-01-09T06:26:22.604Z,98588.19
2023-01-09T06:28:50.526Z,98627.72
2023-01-09T06:31:18.823Z,98618.88
2023-01-09T06:33:47.148Z,98631.78
2023-01-09T06:36:15.419Z,98635.31
2023-01-09T06:38:43.442Z,98628.97
2023-01-09T06:41:11.504Z,98635.84
2023-01-09T06:43:41.102Z,98619.53
2023-01-09T06:46:09.220Z,98619.13
2023-01-09T06:48:37.550Z,98643.34
2023-01-09T06:51:05.665Z,98622.16
2023-01-09T06:53:35.032Z,98658.16
2023-01-09T06:56:04.263Z,98665.28
2023-01-09T06:58:32.100Z,98661.78
2023-01-09T07:01:01.479Z,98678.03
2023-01-09T07:03:29.377Z,98690.72
2023-01-09T07:05:57.653Z,98692.00
2023-01-09T07:08:25.520Z,98704.25
2023-01-09T07:10:53.737Z,98686.06
2023-01-09T07:13:21.892Z,98702.66
2023-01-09T07:15:50.310Z,98674.47
2023-01-09T07:18:20.283Z,98713.50
2023-01-09T07:20:48.468Z,98704.72
2023-01-09T07:23:18.096Z,98712.97
2023-01-09T07:25:46.846Z,98710.16
2023-01-09T07:28:14.590Z,98716.88
2023-01-09T07:30:42.629Z,98694.94
2023-01-09T07:33:11.799Z,98727.81
2023-01-09T07:35:40.923Z,98711.25
2023-01-09T07:38:08.731Z,98685.19
2023-01-09T07:40:37.089Z,98708.44
2023-01-09T07:43:04.999Z,98748.16
2023-01-09T07:45:32.720Z,98742.94
2023-01-09T07:48:00.985Z,98734.53
2023-01-09T07:50:28.989Z,98748.69
2023-01-09T07:52:58.234Z,98740.53
2023-01-09T07:55:25.980Z,98736.03
2023-01-09T07:57:53.791Z,98756.28
2023-01-09T08:00:22.328Z,98739.25
2023-01-09T08:02:53.444Z,98761.25
2023-01-09T08:05:21.597Z,98745.44
2023-01-09T08:07:50.988Z,98776.84
2023-01-09T08:10:21.811Z,98778.22
2023-01-09T08:12:50.928Z,98782.03
2023-01-09T08:15:19.634Z,98787.47
2023-01-09T08:17:48.346Z,98800.13
2023-01-09T08:20:18.429Z,98800.69
2023-01-09T08:22:52.177Z,98803.88
2023-01-09T08:25:21.457Z,98787.84
2023-01-09T08:27:49.510Z,98813.31
2023-01-09T08:30:19.038Z,98820.66
2023-01-09T08:32:50.498Z,98820.44
2023-01-09T08:35:19.495Z,98816.19
2023-01-09T08:37:47.637Z,98831.41
2023-01-09T08:40:16.925Z,98837.81
2023-01-09T08:43:04.194Z,98841.25
2023-01-09T08:45:55.499Z,98844.69
2023-01-09T08:48:23.670Z,98851.81
2023-01-09T08:50:52.208Z,98856.28
2023-01-09T08:53:19.995Z,98855.16
2023-01-09T08:55:48.193Z,98862.19
2023-01-09T08:58:17.539Z,98863.22
2023-01-09T09:00:45.288Z,98869.16
2023-01-09T09:03:13.928Z,98873.63
2023-01-09T09:05:41.864Z,98877.31
2023-01-09T09:08:09.708Z,98887.63
2023-01-09T09:10:37.781Z,98896.84
2023-01-09T09:13:05.684Z,98897.19
2023-01-09T09:15:35.339Z,98898.69
2023-01-09T09:18:07.411Z,98919.44
2023-01-09T09:20:37.659Z,98911.53
2023-01-09T09:23:08.225Z,98918.41
2023-01-09T09:25:38.280Z,98935.03
2023-01-09T09:28:06.724Z,98938.38
2023-01-09T09:30:36.088Z,98925.56
2023-01-09T09:33:04.622Z,98943.19
2023-01-09T09:35:33.815Z,98947.69
2023-01-09T09:38:05.484Z,98952.50
2023-01-09T09:40:52.911Z,98960.53
2023-01-09T09:43:54.728Z,98964.66
2023-01-09T09:46:34.092Z,98969.59
2023-01-09T09:49:07.689Z,98972.00
2023-01-09T09:51:56.686Z,98986.22
2023-01-09T09:54:31.218Z,98989.00
2023-01-09T09:57:01.849Z,98983.72
2023-01-09T09:59:33.490Z,98999.56
2023-01-09T10:02:11.650Z,99003.78
2023-01-09T10:04:47.121Z,99007.00
2023-01-09T10:07:18.004Z,99011.47
2023-01-09T10:09:50.604Z,99023.19
2023-01-09T10:12:28.576Z,99002.44
2023-01-09T10:14:58.178Z,99020.78
2023-01-09T10:17:41.860Z,99030.97
2023-01-09T10:20:33.244Z,99022.59
2023-01-09T10:23:11.453Z,99036.63
2023-01-09T10:25:44.950Z,99052.91
2023-01-09T10:28:32.707Z,99056.34
2023-01-09T10:31:05.710Z,99051.75
2023-01-09T10:33:50.613Z,99057.13
2023-01-09T10:36:39.037Z,99055.78
2023-01-09T10:39:13.246Z,99052.34
2023-01-09T10:41:47.622Z,99054.50
2023-01-09T10:44:21.281Z,99026.53
2023-01-09T10:46:54.711Z,99048.53
2023-01-09T10:49:25.409Z,99061.53
2023-01-09T10:52:01.100Z,99042.91
2023-01-09T10:54:30.703Z,99069.44
2023-01-09T10:57:06.565Z,99075.16
2023-01-09T10:59:34.449Z,99068.41
2023-01-09T11:02:02.518Z,99057.50
2023-01-09T11:04:35.759Z,99060.25
2023-01-09T11:07:07.522Z,99076.31
2023-01-09T11:09:57.011Z,99076.75
2023-01-09T11:12:26.972Z,99080.44
2023-01-09T11:14:54.996Z,99076.75
2023-01-09T11:17:27.114Z,99078.03
2023-01-09T11:20:15.906Z,99090.56
2023-01-09T11:22:47.119Z,99082.53
2023-01-09T11:25:17.037Z,99088.59
2023-01-09T11:27:45.056Z,99089.63
2023-01-09T11:30:21.746Z,99092.16
2023-01-09T11:32:49.814Z,99083.19
2023-01-09T11:35:22.656Z,99096.28
2023-01-09T11:38:00.018Z,99098.69
2023-01-09T11:40:29.854Z,99108.69
2023-01-09T11:43:07.266Z,99088.69
2023-01-09T11:45:37.090Z,99103.97
2023-01-09T11:48:18.551Z,99099.47
2023-01-09T11:50:57.790Z,99099.28
2023-01-09T11:53:26.456Z,99097.75
2023-01-09T11:56:01.797Z,99103.75
2023-01-09T11:58:31.280Z,99100.63
2023-01-09T12:01:10.633Z,99108.00
2023-01-09T12:04:00.875Z,99104.19
2023-01-09T12:06:42.367Z,99118.56
2023-01-09T12:09:20.101Z,99116.25
2023-01-09T12:11:56.262Z,99109.59
2023-01-09T12:14:36.915Z,99123.34
2023-01-09T12:17:32.218Z,99118.06
2023-01-09T12:20:17.958Z,99114.88
2023-01-09T12:22:51.153Z,99121.44
2023-01-09T12:25:30.184Z,99121.97
2023-01-09T12:28:16.416Z,99117.84
2023-01-09T12:31:00.818Z,99116.16
2023-01-09T12:33:40.771Z,99116.81
2023-01-09T12:36:17.865Z,99123.94
2023-01-09T12:38:56.905Z,99122.22
2023-01-09T12:41:48.404Z,99136.22
2023-01-09T12:44:36.460Z,99127.97
2023-01-09T12:47:23.476Z,99094.53
2023-01-09T12:50:03.350Z,99123.47
2023-01-09T12:52:35.525Z,99127.28
2023-01-09T12:55:14.392Z,99143.00
2023-01-09T12:57:45.074Z,99147.34
2023-01-09T13:00:19.115Z,99118.66
2023-01-09T13:03:03.546Z,99114.06
2023-01-09T13:05:38.595Z,99135.53
2023-01-09T13:08:13.177Z,99099.25
2023-01-09T13:10:46.539Z,99137.03
2023-01-09T13:13:20.104Z,99137.34
2023-01-09T13:15:52.215Z,99151.16
2023-01-09T13:18:24.126Z,99156.75
2023-01-09T13:20:56.761Z,99161.56
2023-01-09T13:23:34.646Z,99156.84
2023-01-09T13:26:07.756Z,99157.09
2023-01-09T13:28:38.272Z,99165.13
2023-01-09T13:31:31.866Z,99163.88
2023-01-09T13:34:02.909Z,99166.28
2023-01-09T13:36:34.998Z,99161.78
2023-01-09T13:39:03.661Z,99169.16
2023-01-09T13:41:50.345Z,99142.19
2023-01-09T13:44:24.776Z,99169.03
2023-01-09T13:46:55.557Z,99170.88
2023-01-09T13:50:06.544Z,99172.72
2023-01-09T13:52:37.927Z,99180.75
2023-01-09T13:55:35.628Z,99177.84
2023-01-09T13:58:23.503Z,99182.91
2023-01-09T14:00:54.391Z,99193.47
2023-01-09T14:03:26.738Z,99178.22
2023-01-09T14:06:20.122Z,99203.50
2023-01-09T14:08:50.793Z,99214.31
2023-01-09T14:11:21.589Z,99213.38
2023-01-09T14:14:02.346Z,99231.53
2023-01-09T14:16:32.260Z,99236.81
2023-01-09T14:19:06.274Z,99243.59
2023-01-09T14:21:50.899Z,99244.63
2023-01-09T14:24:27.278Z,99252.81
2023-01-09T14:26:57.862Z,99251.41
2023-01-09T14:29:41.613Z,99239.56
2023-01-09T14:32:43.896Z,99267.75
2023-01-09T14:35:16.945Z,99270.41
2023-01-09T14:37:47.279Z,99275.09
2023-01-09T14:40:23.676Z,99282.44
2023-01-09T14:42:54.496Z,99271.19
2023-01-09T14:45:26.784Z,99302.31
2023-01-09T14:47:59.290Z,99293.84
2023-01-09T14:50:34.717Z,99258.16
2023-01-09T14:53:05.597Z,99305.19
2023-01-09T14:55:41.902Z,99315.97
2023-01-09T14:58:14.220Z,99324.63
2023-01-09T15:00:50.211Z,99352.41
2023-01-09T15:03:18.384Z,99361.38
2023-01-09T15:05:47.988Z,99369.97
2023-01-09T15:08:20.008Z,99348.69
2023-01-09T15:10:50.383Z,99377.53
2023-01-09T15:13:24.248Z,99372.34
2023-01-09T15:15:53.764Z,99382.00
2023-01-09T15:18:25.331Z,99398.91
2023-01-09T15:20:55.886Z,99381.75
2023-01-09T15:23:28.689Z,99401.19
2023-01-09T15:25:57.774Z,99413.22
2023-01-09T15:28:30.283Z,99420.13
2023-01-09T15:31:04.019Z,99408.47
2023-01-09T15:33:33.663Z,99426.66
2023-01-09T15:36:06.439Z,99427.56
2023-01-09T15:38:36.672Z,99419.13
2023-01-09T15:41:09.758Z,99424.19
2023-01-09T15:43:42.582Z,99438.22
2023-01-09T15:46:13.147Z,99422.66
2023-01-09T15:48:40.879Z,99445.31
2023-01-09T15:51:12.154Z,99456.47
2023-01-09T15:53:42.229Z,99461.75
2023-01-09T15:56:19.915Z,99444.84
2023-01-09T15:58:49.421Z,99469.91
2023-01-09T16:01:31.813Z,99455.41
2023-01-09T16:04:06.726Z,99464.31
2023-01-09T16:06:37.708Z,99447.09
2023-01-09T16:09:15.991Z,99463.31
2023-01-09T16:11:48.959Z,99485.63
2023-01-09T16:14:21.770Z,99497.19
2023-01-09T16:16:53.860Z,99509.38
2023-01-09T16:19:32.621Z,99511.41
2023-01-09T16:22:02.290Z,99516.69
2023-01-09T16:24:40.127Z,99470.78
2023-01-09T16:27:31.209Z,99523.59
2023-01-09T16:30:00.381Z,99535.19
2023-01-09T16:35:23.415Z,99552.22
2023-01-09T16:37:51.842Z,99550.06
2023-01-09T16:40:27.986Z,99571.50
2023-01-09T16:43:03.999Z,99578.84
2023-01-09T16:45:35.697Z,99577.59
2023-01-09T16:48:13.060Z,99577.44
2023-01-09T16:50:41.470Z,99582.34
2023-01-09T16:53:16.072Z,99571.06
2023-01-09T16:55:44.472Z,99596.34
2023-01-09T16:58:18.382Z,99598.00
2023-01-09T17:00:46.523Z,99596.81
2023-01-09T17:03:17.595Z,99608.75
2023-01-09T17:05:45.745Z,99614.25
2023-01-09T17:08:21.936Z,99613.03
2023-01-09T17:10:49.877Z,99620.84
2023-01-09T17:13:17.750Z,99610.34
2023-01-09T17:15:46.785Z,99630.69
2023-01-09T17:18:18.187Z,99588.38
2023-01-09T17:20:49.540Z,99637.78
2023-01-09T17:23:20.090Z,99633.16
2023-01-09T17:26:06.606Z,99633.84
2023-01-09T17:28:35.660Z,99656.94
2023-01-09T17:31:06.609Z,99644.88
2023-01-09T17:33:36.660Z,99663.88
2023-01-09T17:36:07.776Z,99656.66
2023-01-09T17:38:35.575Z,99626.41
2023-01-09T17:41:03.466Z,99668.03
2023-01-09T17:43:32.893Z,99685.88
2023-01-09T17:46:01.117Z,99687.13
2023-01-09T17:48:29.563Z,99697.28
2023-01-09T17:50:59.463Z,99693.63
2023-01-09T17:53:29.458Z,99699.38
2023-01-09T17:55:57.401Z,99723.31
2023-01-09T17:58:29.173Z,99719.63
2023-01-09T18:00:57.959Z,99730.19
2023-01-09T18:03:31.180Z,99731.44
2023-01-09T18:06:01.278Z,99737.91
2023-01-09T18:08:29.355Z,99750.94
2023-01-09T18:10:57.291Z,99719.78
2023-01-09T18:13:25.141Z,99752.78
2023-01-09T18:15:52.996Z,99742.88
2023-01-09T18:18:22.735Z,99760.34
2023-01-09T18:20:51.072Z,99772.25
2023-01-09T18:23:20.892Z,99781.81
2023-01-09T18:25:49.077Z,99783.06
2023-01-09T18:28:18.527Z,99812.28
2023-01-09T18:30:47.835Z,99810.66
2023-01-09T18:33:17.608Z,99807.25
2023-01-09T18:35:46.433Z,99816.34
2023-01-09T18:38:14.282Z,99809.09
2023-01-09T18:40:43.758Z,99827.34
2023-01-09T18:43:12.102Z,99839.53
2023-01-09T18:45:40.627Z,99867.72
2023-01-09T18:48:09.978Z,99868.97
2023-01-09T18:50:37.908Z,99884.56
2023-01-09T18:53:06.273Z,99884.22
2023-01-09T18:55:34.188Z,99894.53
2023-01-09T18:58:03.788Z,99876.47
2023-01-09T19:00:32.117Z,99892.53
2023-01-09T19:03:00.052Z,99906.13
2023-01-09T19:05:27.851Z,99899.63
2023-01-09T19:07:55.768Z,99899.63
2023-01-09T19:10:23.840Z,99923.16
2023-01-09T19:12:51.714Z,99928.44
2023-01-09T19:15:20.947Z,99917.47
2023-01-09T19:17:50.569Z,99932.91
2023-01-09T19:20:19.021Z,99950.34
2023-01-09T19:22:46.944Z,99918.13
2023-01-09T19:25:14.953Z,99954.00
2023-01-09T19:27:42.830Z,99914.28
2023-01-09T19:30:12.234Z,99925.47
2023-01-09T19:32:42.449Z,99967.22
2023-01-09T19:35:10.538Z,99979.38
2023-01-09T19:37:38.481Z,99979.59
2023-01-09T19:40:07.472Z,99955.69
2023-01-09T19:42:35.274Z,99986.69
2023-01-09T19:45:03.360Z,99979.59
2023-01-09T19:47:35.702Z,99992.19
2023-01-09T19:50:05.999Z,99998.03
2023-01-09T19:52:33.940Z,99989.94
2023-01-09T19:55:01.965Z,99986.06
2023-01-09T19:57:29.931Z,100012.69
2023-01-09T19:59:57.849Z,100019.38
2023-01-09T20:02:25.824Z,100016.31
2023-01-09T20:04:53.868Z,100018.56
2023-01-09T20:07:23.163Z,99985.28
2023-01-09T20:09:52.114Z,100010.44
2023-01-09T20:12:19.938Z,100025.25
2023-01-09T20:14:47.700Z,100041.47
2023-01-09T20:17:16.014Z,100001.28
2023-01-09T20:19:45.541Z,100002.13
2023-01-09T20:22:15.687Z,100059.34
2023-01-09T20:24:45.339Z,100025.66
2023-01-09T20:27:13.286Z,100052.66
2023-01-09T20:29:41.031Z,100030.72
2023-01-09T20:32:10.414Z,100026.47
2023-01-09T20:34:38.140Z,100057.50
2023-01-09T20:37:06.028Z,100055.06
2023-01-09T20:39:36.179Z,100064.81
2023-01-09T20:42:05.534Z,100040.06
2023-01-09T20:44:33.280Z,100064.84
2023-01-09T20:47:01.529Z,100019.34
2023-01-09T20:49:29.391Z,100090.59
2023-01-09T20:51:57.216Z,100083.88
2023-01-09T20:54:25.801Z,100088.75
2023-01-09T20:56:55.067Z,100083.06
2023-01-09T20:59:25.485Z,100098.28
2023-01-09T21:01:53.337Z,100078.59
2023-01-09T21:04:21.257Z,100077.94
2023-01-09T21:06:50.889Z,100091.97
2023-01-09T21:09:20.361Z,100114.28
2023-01-09T21:11:48.315Z,100122.78
2023-01-09T21:14:16.723Z,100116.09
2023-01-09T21:16:54.042Z,100122.16
2023-01-09T21:19:23.120Z,100146.69
2023-01-09T21:21:53.105Z,100143.44
2023-01-09T21:24:21.398Z,100152.34
2023-01-09T21:26:49.340Z,100140.19
2023-01-09T21:29:17.552Z,100148.09
2023-01-09T21:31:47.162Z,100164.53
2023-01-09T21:34:17.613Z,100161.28
2023-01-09T21:36:48.667Z,100170.22
2023-01-09T21:39:17.950Z,100167.78
2023-01-09T21:42:03.362Z,100174.66
2023-01-09T21:44:49.043Z,100181.34
2023-01-09T21:47:18.328Z,100179.31
2023-01-09T21:49:46.291Z,100181.78
2023-01-09T21:52:15.933Z,100170.19
2023-01-09T21:54:43.861Z,100165.50
2023-01-09T21:57:12.952Z,100183.59
2023-01-09T21:59:41.394Z,100191.09
2023-01-09T22:02:12.600Z,100181.13
2023-01-09T22:04:42.995Z,100178.25
2023-01-09T22:07:11.420Z,100195.31
2023-01-09T22:09:39.299Z,100188.78
2023-01-09T22:12:08.206Z,100211.28
2023-01-09T22:14:36.418Z,100228.56
2023-01-09T22:17:05.353Z,100186.97
2023-01-09T22:19:33.698Z,100227.44
2023-01-09T22:22:07.201Z,100241.63
2023-01-09T22:24:36.073Z,100280.16
2023-01-09T22:27:04.114Z,100266.50
2023-01-09T22:29:31.913Z,100224.97
2023-01-09T22:32:00.448Z,100248.69
2023-01-09T22:34:28.433Z,100259.06
2023-01-09T22:36:56.198Z,100308.31
2023-01-09T22:39:26.852Z,100280.38
2023-01-09T22:41:55.288Z,100296.03
2023-01-09T22:44:23.666Z,100324.94
2023-01-09T22:46:51.995Z,100337.91
2023-01-09T22:49:19.924Z,100341.53
2023-01-09T22:51:47.748Z,100316.03
2023-01-09T22:54:16.567Z,100352.66
2023-01-09T22:56:45.842Z,100334.28
2023-01-09T22:59:13.868Z,100357.31
2023-01-09T23:01:42.283Z,100355.50
2023-01-09T23:04:13.177Z,100379.19
2023-01-09T23:06:41.170Z,100373.31
2023-01-09T23:09:09.108Z,100333.13
2023-01-09T23:11:54.437Z,100366.91
2023-01-09T23:14:24.247Z,100386.66
2023-01-09T23:16:52.219Z,100383.59
2023-01-09T23:19:20.088Z,100380.28
2023-01-09T23:21:48.586Z,100359.88
2023-01-09T23:24:17.883Z,100409.97
2023-01-09T23:26:46.556Z,100411.13
2023-01-09T23:29:15.850Z,100412.34
2023-01-09T23:31:45.404Z,100390.25
2023-01-09T23:34:16.280Z,100422.44
2023-01-09T23:36:44.460Z,100387.09
2023-01-09T23:39:12.231Z,100422.38
2023-01-09T23:41:58.984Z,100432.44
2023-01-09T23:44:27.096Z,100441.88
2023-01-09T23:46:56.422Z,100403.00
2023-01-09T23:49:24.588Z,100447.69
2023-01-09T23:51:52.574Z,100423.84
2023-01-09T23:54:20.471Z,100412.97
2023-01-09T23:56:48.909Z,100417.53
2023-01-09T23:59:18.221Z,100464.25
